Aeroporto :
LOGIN :

Iscrizione | Disclaimer

   EN    FR    IT 

 










Sommario :    VFR   VFR Marginale   IFR   IFR Intensivo   IFR Molto Intensivo
Visibilità : 
Base nubi : 
>= 8 km
>= 3000ft
5 / 8 km
1000 / 3000 ft
1500m / 5 km
500 / 1000 ft
800 / 1500m
200 / 500 ft
< 800m
< 200 ft
Simboli :   Temporali  Nebbia  Neve Forte  Precipitazioni Forti  Vento > 20 kt
SIGMETs :   Varie  Temporali  Ghiacco  Turbolenza  Onda orograficha  Ceneri Vulcaniche






- Altitudine del aeroporto : 408 ft
- Codice IATA : FKB


EDSB - Karlsruhe Baden Baden

ULTIMO METAR :
  • 120520Z 22008KT 9000 -RA BKN025 OVC032 04/03 Q1005

METARs OBSOLETI :
  • 120450Z 21006KT 9999 -RA FEW030 BKN034 OVC045 04/03 Q1005
  • 120420Z 22005KT 9999 BKN036 BKN042 OVC060 04/03 Q1005
  • 120350Z 22004KT 9999 FEW033 BKN039 OVC046 04/03 Q1005
  • 120320Z AUTO 21005KT 9999 BKN035/// BKN045/// BKN053/// 04/03 Q1006
  • 120250Z AUTO 22006KT 9999 BKN036/// 04/03 Q1006

TAF AMD TAF EDSB
Valido dal 11 a 19 ore il 12 a 18 ore UTC


111943Z 1119/1218 19005KT 9000 SCT015 BKN025
TEMPO 1119/1202 21011KT 4500 RADZ BKN009 OVC012
PROB30
TEMPO 1202/1208 3000 DZRA BKN010
BECMG 1205/1208 21010KT
PROB30
TEMPO 1208/1212 4000 SHRA BKN012TCU



MetMap, La meteo Aeronautica in un colpo d'occhio ! - Copyright ORBIFLY Dicembre 2007 - Disclaimer

ORBIFLY MET'MAP TEAM :

Programmazione e sviluppo : Alexandra Zaïnal
Concezione : Baudouin d'Aumeries
Aiuto per la programmazione : Marc-Olivier Méhu
Supporto tecnico e logistico : Manuel Goepfert
Aiuto per la traduzione : Arnaldo La Scala

Contatto : metmap@orbifly.com




FONTI E CREDITI :

   NOAA